Time;durP1;ratioP1;P1;durP2;ratioP2;P2;SDS_P1;SDS_P2;PMS_P1;PMS_P2;Temp;Humidity;BMP_temperature;BMP_pressure;BME280_temperature;BME280_humidity;BME280_pressure;Samples;Min_cycle;Max_cycle;Signal;HPM_P1;HPM_P2
2023/05/06 00:02:19;;;;;;;13.97;6.83;;;;;;;9.25;77.62;100582.14;1398051;93;22377;-90
2023/05/06 00:04:45;;;;;;;13.83;6.40;;;;;;;9.25;77.07;100575.55;1396707;94;21494;-86
2023/05/06 00:07:11;;;;;;;12.40;7.07;;;;;;;9.22;76.61;100578.95;1388603;94;21376;-90
2023/05/06 00:09:38;;;;;;;14.30;6.47;;;;;;;9.17;77.39;100583.79;1398284;93;22469;-88
2023/05/06 00:12:04;;;;;;;14.03;6.77;;;;;;;9.11;77.99;100576.41;1392955;92;21432;-89
2023/05/06 00:14:31;;;;;;;12.83;7.07;;;;;;;9.03;77.53;100580.57;1401737;94;21418;-88
2023/05/06 00:16:57;;;;;;;19.13;8.53;;;;;;;8.99;78.17;100571.23;1397884;94;21439;-91
2023/05/06 00:19:23;;;;;;;14.40;6.67;;;;;;;8.99;77.92;100574.36;1390447;94;21884;-90
2023/05/06 00:21:49;;;;;;;15.93;6.93;;;;;;;8.99;77.59;100575.19;1388995;94;21335;-91
2023/05/06 00:24:15;;;;;;;13.60;6.43;;;;;;;8.99;78.42;100576.52;1391527;93;21380;-92
2023/05/06 00:26:41;;;;;;;12.70;7.07;;;;;;;9.02;77.92;100573.59;1385545;94;22311;-88
2023/05/06 00:29:07;;;;;;;18.50;7.37;;;;;;;9.03;78.18;100575.30;1395276;94;21306;-88
2023/05/06 00:31:34;;;;;;;10.17;6.67;;;;;;;9.04;78.43;100572.99;1378300;94;21364;-86
2023/05/06 00:34:00;;;;;;;23.73;6.87;;;;;;;9.00;79.04;100574.20;1394292;94;21402;-89
2023/05/06 00:36:26;;;;;;;12.30;6.73;;;;;;;8.97;78.78;100571.84;1397037;94;21450;-88
2023/05/06 00:38:56;;;;;;;11.67;7.43;;;;;;;8.96;79.35;100572.81;1391287;92;21390;-86
2023/05/06 00:41:22;;;;;;;14.50;6.93;;;;;;;8.96;78.64;100571.98;1407900;92;21458;-87
2023/05/06 00:43:48;;;;;;;12.33;6.70;;;;;;;8.97;79.08;100571.84;1393415;92;21364;-86
2023/05/06 00:46:16;;;;;;;11.77;6.83;;;;;;;8.98;78.92;100570.06;1402780;92;21354;-84
2023/05/06 00:48:44;;;;;;;15.40;6.20;;;;;;;9.02;78.88;100572.28;1392032;93;21420;-86
2023/05/06 00:51:11;;;;;;;12.53;6.63;;;;;;;9.02;79.51;100572.77;1399138;93;22417;-86
2023/05/06 00:53:38;;;;;;;14.50;6.43;;;;;;;8.98;79.68;100577.98;1395658;94;21364;-87
2023/05/06 00:56:05;;;;;;;12.70;6.00;;;;;;;8.92;79.90;100567.92;1389771;94;22078;-88
2023/05/06 00:58:33;;;;;;;14.87;6.97;;;;;;;8.88;80.40;100576.60;1393570;94;21405;-87
2023/05/06 01:01:00;;;;;;;13.97;6.00;;;;;;;8.83;81.74;100570.05;1396512;92;21536;-87
2023/05/06 01:03:26;;;;;;;11.90;7.27;;;;;;;8.76;81.56;100567.95;1395817;92;21934;-86
2023/05/06 01:06:38;;;;;;;11.47;6.27;;;;;;;8.72;81.73;100577.59;1397530;92;21387;-88
2023/05/06 01:09:19;;;;;;;14.20;7.30;;;;;;;8.70;81.37;100580.84;1394279;92;21585;-87
2023/05/06 01:11:54;;;;;;;16.00;7.03;;;;;;;8.66;81.10;100580.73;1394436;92;21414;-88
2023/05/06 01:15:15;;;;;;;15.20;7.17;;;;;;;8.64;80.21;100583.52;1394912;92;21616;-87
2023/05/06 01:17:45;;;;;;;;;;;;;;;8.61;80.38;100588.23;1385737;94;21917;-86
2023/05/06 01:20:14;;;;;;;12.00;5.85;;;;;;;8.50;82.07;100581.22;1391835;92;20415;-87
2023/05/06 01:22:40;;;;;;;11.80;6.87;;;;;;;8.44;80.78;100586.53;1392316;94;22339;-86
2023/05/06 01:25:07;;;;;;;13.63;7.63;;;;;;;8.39;80.99;100584.77;1396162;94;21402;-87
2023/05/06 01:27:33;;;;;;;13.10;6.23;;;;;;;8.32;82.11;100592.82;1401905;92;22340;-87
2023/05/06 01:30:00;;;;;;;8.70;6.33;;;;;;;8.25;82.09;100593.80;1396246;94;21379;-88
2023/05/06 01:33:06;;;;;;;10.70;6.20;;;;;;;8.24;82.57;100596.58;1394857;94;21407;-86
2023/05/06 01:35:46;;;;;;;15.90;7.47;;;;;;;8.22;83.08;100595.86;1405292;92;21394;-87
2023/05/06 01:38:43;;;;;;;13.43;6.28;;;;;;;8.21;83.22;100602.11;1392905;92;21513;-86
2023/05/06 01:41:17;;;;;;;9.97;5.70;;;;;;;8.24;83.78;100597.90;1402927;92;22799;-87
2023/05/06 01:43:46;;;;;;;10.40;6.53;;;;;;;8.26;84.62;100600.77;1397236;92;21541;-87
2023/05/06 01:46:18;;;;;;;10.83;6.00;;;;;;;8.29;84.17;100595.72;1372788;94;21568;-85
2023/05/06 01:48:46;;;;;;;10.63;6.23;;;;;;;8.29;85.44;100603.63;1396134;92;21550;-85
2023/05/06 01:51:12;;;;;;;16.93;6.67;;;;;;;8.29;85.87;100595.72;1399848;92;21415;-84
2023/05/06 01:53:39;;;;;;;10.77;5.67;;;;;;;8.33;85.39;100605.03;1393433;92;21424;-83
2023/05/06 01:56:05;;;;;;;8.80;6.67;;;;;;;8.36;85.15;100605.60;1397970;92;21380;-84
2023/05/06 01:58:31;;;;;;;14.57;6.17;;;;;;;8.39;85.02;100609.82;1401849;92;21393;-83
2023/05/06 02:00:57;;;;;;;8.73;6.37;;;;;;;8.41;86.34;100603.94;1386214;92;21408;-85
2023/05/06 02:03:24;;;;;;;8.93;5.87;;;;;;;8.42;85.71;100604.28;1404812;92;21394;-81
2023/05/06 02:05:50;;;;;;;12.93;6.63;;;;;;;8.43;85.50;100609.07;1405773;92;21337;-83
2023/05/06 02:08:16;;;;;;;8.03;5.70;;;;;;;8.44;85.57;100598.41;1409456;92;21578;-81
2023/05/06 02:10:43;;;;;;;14.70;6.03;;;;;;;8.49;85.41;100604.62;1401902;92;21412;-85
2023/05/06 02:13:10;;;;;;;12.57;5.93;;;;;;;8.52;85.29;100592.49;1416129;92;21367;-84
2023/05/06 02:15:36;;;;;;;14.67;6.80;;;;;;;8.57;85.04;100590.27;1411360;92;22159;-84
2023/05/06 02:18:03;;;;;;;11.30;5.67;;;;;;;8.59;84.67;100594.45;1413202;92;21397;-84
2023/05/06 02:20:29;;;;;;;11.43;6.17;;;;;;;8.62;84.69;100592.53;1402166;92;21377;-89
2023/05/06 02:22:55;;;;;;;15.57;6.27;;;;;;;8.62;85.03;100594.68;1394598;94;21424;-88
2023/05/06 02:25:22;;;;;;;13.30;6.63;;;;;;;8.63;84.69;100594.19;1401926;94;21401;-88
2023/05/06 02:27:48;;;;;;;13.87;6.97;;;;;;;8.62;85.69;100593.84;1391191;93;22388;-86
2023/05/06 02:30:14;;;;;;;12.90;7.20;;;;;;;8.59;86.01;100593.63;1402940;92;21369;-85
2023/05/06 02:32:41;;;;;;;11.90;7.00;;;;;;;8.57;85.52;100591.13;1395530;92;21435;-86
2023/05/06 02:35:08;;;;;;;9.17;6.43;;;;;;;8.58;84.69;100589.33;1401087;92;21474;-87
2023/05/06 02:37:34;;;;;;;10.30;6.33;;;;;;;8.62;84.44;100588.57;1396197;92;22548;-87
2023/05/06 02:40:01;;;;;;;8.50;5.87;;;;;;;8.64;84.46;100589.28;1397518;92;22231;-87
2023/05/06 02:42:27;;;;;;;17.30;6.47;;;;;;;8.66;84.83;100584.70;1404721;92;21294;-86
2023/05/06 02:44:53;;;;;;;9.63;6.43;;;;;;;8.65;84.54;100591.78;1392781;94;21568;-88
2023/05/06 02:47:19;;;;;;;12.70;7.13;;;;;;;8.66;84.03;100589.97;1391899;92;22356;-87
2023/05/06 02:49:46;;;;;;;13.27;6.33;;;;;;;8.67;84.20;100589.86;1410640;92;21451;-89
2023/05/06 02:52:12;;;;;;;16.53;6.70;;;;;;;8.66;84.62;100594.79;1392834;92;21422;-88
2023/05/06 02:54:38;;;;;;;8.30;5.63;;;;;;;8.64;84.81;100595.39;1391523;92;21462;-89
2023/05/06 02:57:04;;;;;;;8.77;5.47;;;;;;;8.64;84.58;100587.97;1384183;92;21346;-89
2023/05/06 02:59:30;;;;;;;12.17;5.77;;;;;;;8.64;84.79;100586.16;1399125;92;21416;-88
2023/05/06 03:01:56;;;;;;;9.30;5.50;;;;;;;8.65;84.89;100585.67;1401320;92;21622;-88
2023/05/06 03:04:22;;;;;;;15.27;7.00;;;;;;;8.68;84.71;100588.05;1424109;92;21375;-89
2023/05/06 03:06:51;;;;;;;9.00;5.70;;;;;;;8.68;84.95;100582.28;1399935;92;21437;-89
2023/05/06 03:09:17;;;;;;;9.70;6.17;;;;;;;8.68;85.48;100583.59;1393866;92;21450;-86
2023/05/06 03:11:43;;;;;;;10.17;5.93;;;;;;;8.66;85.60;100586.02;1395123;92;22341;-86
2023/05/06 03:14:09;;;;;;;13.37;6.37;;;;;;;8.62;85.50;100583.30;1393494;93;21474;-87
2023/05/06 03:16:36;;;;;;;12.00;6.73;;;;;;;8.60;85.75;100587.38;1412222;92;21510;-85
2023/05/06 03:19:05;;;;;;;12.30;6.17;;;;;;;8.59;86.02;100584.39;1400039;92;21386;-87
2023/05/06 03:21:32;;;;;;;9.70;6.10;;;;;;;8.60;86.50;100588.69;1404129;93;21585;-89
2023/05/06 03:23:58;;;;;;;13.83;6.73;;;;;;;8.61;86.48;100585.59;1392504;92;21398;-88
2023/05/06 03:26:24;;;;;;;11.27;6.13;;;;;;;8.65;86.57;100590.95;1396689;92;21309;-90
2023/05/06 03:28:50;;;;;;;11.40;6.20;;;;;;;8.66;86.62;100590.83;1400496;92;21423;-91
2023/05/06 03:31:16;;;;;;;13.37;5.73;;;;;;;8.67;87.08;100588.53;1394526;93;21283;-90
2023/05/06 03:33:43;;;;;;;9.43;5.80;;;;;;;8.68;86.48;100588.05;1398474;92;21373;-88
2023/05/06 03:36:09;;;;;;;13.13;6.70;;;;;;;8.70;86.39;100590.08;1399064;92;21451;-90
2023/05/06 03:38:35;;;;;;;10.03;5.87;;;;;;;8.74;86.91;100591.47;1412128;92;21337;-90
2023/05/06 03:41:02;;;;;;;11.97;6.30;;;;;;;8.75;87.01;100590.53;1391187;93;21329;-89
2023/05/06 03:43:28;;;;;;;12.07;6.33;;;;;;;8.77;87.17;100587.25;1389261;92;21362;-88
2023/05/06 03:45:54;;;;;;;7.87;5.27;;;;;;;8.81;86.70;100588.19;1394886;92;21387;-88
2023/05/06 03:48:20;;;;;;;11.63;6.10;;;;;;;8.88;86.51;100588.48;1397205;93;21385;-89
2023/05/06 03:50:47;;;;;;;12.33;5.77;;;;;;;8.95;86.60;100585.67;1378303;92;21429;-91
2023/05/06 03:53:13;;;;;;;10.00;6.40;;;;;;;8.99;86.88;100588.39;1395978;92;21342;-85
2023/05/06 03:55:40;;;;;;;9.93;5.43;;;;;;;9.03;86.74;100589.81;1379583;93;22317;-86
2023/05/06 03:58:07;;;;;;;7.80;5.33;;;;;;;9.05;86.83;100592.30;1395010;94;21387;-88
2023/05/06 04:00:33;;;;;;;15.87;6.33;;;;;;;9.09;87.13;100596.82;1384412;92;21392;-87
2023/05/06 04:02:59;;;;;;;14.40;6.53;;;;;;;9.13;87.20;100598.24;1395329;92;22415;-88
2023/05/06 04:05:26;;;;;;;10.67;6.20;;;;;;;9.16;86.87;100594.02;1391174;93;21409;-87
2023/05/06 04:07:54;;;;;;;9.00;6.33;;;;;;;9.23;86.43;100593.81;1400840;92;21883;-86
2023/05/06 04:10:20;;;;;;;9.70;6.23;;;;;;;9.31;86.29;100588.69;1393296;92;22012;-87
2023/05/06 04:12:46;;;;;;;12.87;6.57;;;;;;;9.41;86.38;100588.24;1394237;92;21407;-88
2023/05/06 04:15:12;;;;;;;20.73;7.30;;;;;;;9.47;86.50;100595.63;1396307;92;21797;-85
2023/05/06 04:17:38;;;;;;;11.97;7.00;;;;;;;9.53;86.60;100602.66;1390841;92;21555;-85
2023/05/06 04:20:06;;;;;;;10.87;7.27;;;;;;;9.57;86.46;100600.08;1388653;92;21399;-85
2023/05/06 04:22:32;;;;;;;12.23;7.13;;;;;;;9.64;86.37;100598.58;1384697;93;21416;-86
2023/05/06 04:25:03;;;;;;;11.00;6.30;;;;;;;9.73;86.04;100599.06;1403577;92;22406;-86
2023/05/06 04:27:28;;;;;;;9.33;6.27;;;;;;;9.83;86.25;100601.21;1419433;92;21397;-84
2023/05/06 04:29:55;;;;;;;10.70;6.70;;;;;;;9.96;85.94;100588.23;1413630;92;21473;-86
2023/05/06 04:32:24;;;;;;;14.27;5.97;;;;;;;10.09;85.81;100590.08;1395993;93;22282;-86
2023/05/06 04:34:52;;;;;;;16.43;7.47;;;;;;;10.19;85.66;100590.92;1396718;92;21431;-86
2023/05/06 04:37:20;;;;;;;11.97;6.93;;;;;;;10.28;85.46;100602.49;1411994;92;22204;-86
2023/05/06 04:39:46;;;;;;;15.40;7.93;;;;;;;10.38;85.65;100596.19;1400542;92;21350;-86
2023/05/06 04:42:13;;;;;;;13.73;7.23;;;;;;;10.47;85.66;100594.53;1399949;92;21284;-86
2023/05/06 04:44:42;;;;;;;15.93;7.47;;;;;;;10.55;85.57;100591.98;1392882;92;21457;-85
2023/05/06 04:47:08;;;;;;;22.83;8.80;;;;;;;10.63;85.32;100589.94;1392642;92;21350;-85
2023/05/06 04:49:36;;;;;;;13.10;7.10;;;;;;;10.72;85.52;100600.98;1403965;92;21428;-84
2023/05/06 04:52:03;;;;;;;15.37;8.73;;;;;;;10.81;85.23;100608.05;1380815;93;21437;-87
2023/05/06 04:54:29;;;;;;;12.27;6.60;;;;;;;10.94;85.17;100610.39;1403674;92;22381;-88
2023/05/06 04:56:55;;;;;;;18.13;7.70;;;;;;;11.10;85.18;100606.27;1408629;92;21452;-88
2023/05/06 04:59:21;;;;;;;12.00;7.97;;;;;;;11.24;85.22;100605.30;1409041;92;22229;-85
2023/05/06 05:01:47;;;;;;;11.93;7.47;;;;;;;11.37;84.59;100599.66;1388246;94;21460;-86
2023/05/06 05:04:14;;;;;;;13.53;7.23;;;;;;;11.48;84.51;100605.25;1404076;93;22279;-85
2023/05/06 05:06:40;;;;;;;12.63;8.07;;;;;;;11.56;84.06;100598.69;1392957;94;21289;-85
2023/05/06 05:09:06;;;;;;;16.70;8.37;;;;;;;11.69;83.56;100603.14;1388455;93;21421;-86
2023/05/06 05:11:32;;;;;;;14.40;7.90;;;;;;;11.82;83.18;100597.95;1389290;93;21280;-85
2023/05/06 05:13:58;;;;;;;20.07;8.60;;;;;;;11.94;83.10;100597.62;1402581;93;22395;-85
2023/05/06 05:16:24;;;;;;;10.60;7.97;;;;;;;12.05;82.70;100592.55;1392947;93;21405;-85
2023/05/06 05:18:53;;;;;;;17.13;7.87;;;;;;;12.16;82.32;100588.33;1392623;94;21391;-86
2023/05/06 05:21:20;;;;;;;13.27;8.30;;;;;;;12.29;81.91;100583.14;1378837;93;21384;-86
2023/05/06 05:23:46;;;;;;;13.20;7.90;;;;;;;12.43;81.77;100582.58;1373274;95;21428;-84
2023/05/06 05:26:12;;;;;;;18.23;9.00;;;;;;;12.57;81.21;100586.45;1376538;95;22370;-86
2023/05/06 05:28:38;;;;;;;15.53;8.00;;;;;;;12.71;80.99;100589.86;1373984;93;21565;-87
2023/05/06 05:31:05;;;;;;;13.10;9.53;;;;;;;12.81;80.58;100587.94;1357729;95;21447;-87
2023/05/06 05:33:31;;;;;;;14.03;8.97;;;;;;;12.88;80.17;100586.30;1394425;92;21439;-87
2023/05/06 05:35:57;;;;;;;15.67;8.93;;;;;;;12.96;80.00;100578.05;1389141;92;21316;-86
2023/05/06 05:38:23;;;;;;;14.40;8.73;;;;;;;13.12;80.28;100579.92;1391361;92;21410;-85
2023/05/06 05:40:50;;;;;;;13.10;8.40;;;;;;;13.31;80.05;100578.36;1375399;94;21350;-89
2023/05/06 05:43:16;;;;;;;17.63;10.00;;;;;;;13.48;79.87;100569.44;1396136;92;21284;-90
2023/05/06 05:45:42;;;;;;;13.37;9.13;;;;;;;13.69;79.23;100570.30;1381087;94;21496;-90
2023/05/06 05:48:08;;;;;;;15.70;9.07;;;;;;;13.88;78.45;100573.16;1376342;93;21535;-90
2023/05/06 05:50:34;;;;;;;14.43;9.23;;;;;;;14.03;77.73;100565.33;1406846;92;22865;-87
2023/05/06 05:53:00;;;;;;;11.17;8.80;;;;;;;14.19;77.38;100569.83;1392909;92;21250;-87
2023/05/06 05:55:28;;;;;;;15.33;9.10;;;;;;;14.34;77.00;100575.30;1398775;92;21461;-89
2023/05/06 05:57:54;;;;;;;13.13;8.50;;;;;;;14.49;76.57;100574.11;1389476;92;21370;-87
2023/05/06 06:00:21;;;;;;;12.77;9.20;;;;;;;14.63;75.94;100578.27;1413791;92;21742;-89
2023/05/06 06:02:47;;;;;;;16.93;9.40;;;;;;;14.65;74.44;100580.77;1417137;92;21413;-89
2023/05/06 06:05:13;;;;;;;19.57;10.10;;;;;;;14.67;73.49;100582.74;1403433;92;22285;-87
2023/05/06 06:07:39;;;;;;;22.00;10.73;;;;;;;14.73;73.63;100583.42;1347473;95;21310;-89
2023/05/06 06:10:06;;;;;;;19.37;10.20;;;;;;;14.84;73.34;100585.69;1397473;94;21311;-88
2023/05/06 06:12:33;;;;;;;14.87;9.17;;;;;;;14.98;72.91;100589.98;1400337;92;21487;-91
2023/05/06 06:14:59;;;;;;;13.60;8.37;;;;;;;15.09;72.60;100586.95;1393199;94;22267;-89
2023/05/06 06:17:25;;;;;;;13.43;8.07;;;;;;;15.21;72.36;100593.55;1380343;93;21447;-88
2023/05/06 06:19:55;;;;;;;19.03;8.63;;;;;;;15.38;72.34;100586.81;1405394;92;21294;-85
2023/05/06 06:22:19;;;;;;;11.17;8.37;;;;;;;15.53;71.71;100584.54;1412943;92;21931;-79
2023/05/06 06:24:45;;;;;;;15.53;9.70;;;;;;;15.68;70.64;100578.48;1386854;92;21537;-81
2023/05/06 06:27:11;;;;;;;16.70;9.07;;;;;;;15.83;70.72;100573.23;1403751;92;21439;-81
2023/05/06 06:29:37;;;;;;;13.10;7.70;;;;;;;16.03;70.35;100574.41;1394159;92;22458;-81
2023/05/06 06:32:04;;;;;;;15.83;7.73;;;;;;;16.19;68.99;100576.91;1404251;92;21395;-82
2023/05/06 06:34:30;;;;;;;12.60;8.87;;;;;;;16.40;68.50;100574.91;1399295;91;21414;-83
2023/05/06 06:36:58;;;;;;;12.13;8.10;;;;;;;16.63;68.11;100574.83;1404244;91;21362;-82
2023/05/06 06:39:24;;;;;;;17.13;7.93;;;;;;;16.84;67.03;100577.30;1401857;91;22310;-80
2023/05/06 06:41:50;;;;;;;12.73;7.40;;;;;;;17.01;66.82;100575.27;1398635;91;21458;-80
2023/05/06 06:44:17;;;;;;;11.03;7.17;;;;;;;17.17;65.93;100572.37;1388390;91;21370;-80
2023/05/06 06:46:43;;;;;;;12.47;7.97;;;;;;;17.35;64.76;100580.02;1382691;91;21466;-79
2023/05/06 06:49:10;;;;;;;11.70;7.57;;;;;;;17.54;65.12;100568.67;1399353;91;21579;-81
2023/05/06 06:51:36;;;;;;;11.67;7.77;;;;;;;17.77;64.48;100574.37;1371634;93;21446;-81
2023/05/06 06:54:02;;;;;;;17.27;8.23;;;;;;;17.96;63.45;100575.11;1383554;93;21519;-82
2023/05/06 06:56:28;;;;;;;12.73;7.70;;;;;;;18.11;62.51;100571.52;1371310;93;21581;-83
2023/05/06 06:58:54;;;;;;;12.63;9.40;;;;;;;18.21;62.13;100571.52;1382104;93;21420;-82
2023/05/06 07:01:21;;;;;;;18.87;7.73;;;;;;;18.38;61.65;100576.05;1399781;91;22376;-82
2023/05/06 07:03:47;;;;;;;8.90;6.60;;;;;;;18.48;61.19;100576.55;1405727;91;21348;-82
2023/05/06 07:06:13;;;;;;;11.90;6.50;;;;;;;18.60;60.94;100573.32;1381561;93;21444;-82
2023/05/06 07:08:39;;;;;;;13.50;7.17;;;;;;;18.75;60.65;100574.05;1400529;91;22309;-82
2023/05/06 07:11:05;;;;;;;11.30;6.97;;;;;;;18.92;60.28;100579.92;1392469;91;22713;-82
2023/05/06 07:13:32;;;;;;;8.97;6.13;;;;;;;19.02;59.33;100574.19;1398232;91;22115;-82
2023/05/06 07:15:58;;;;;;;8.67;5.83;;;;;;;18.99;56.67;100579.95;1398932;91;21377;-82
2023/05/06 07:18:24;;;;;;;11.20;6.93;;;;;;;18.87;55.01;100580.54;1397383;91;21380;-83
2023/05/06 07:20:50;;;;;;;14.73;6.62;;;;;;;18.99;57.51;100578.61;1393840;91;21422;-85
2023/05/06 07:23:16;;;;;;;10.03;7.12;;;;;;;19.20;57.66;100585.22;1396521;91;21532;-83
2023/05/06 07:25:42;;;;;;;11.38;6.55;;;;;;;19.42;57.46;100583.73;1405602;91;22405;-84
2023/05/06 07:28:08;;;;;;;12.95;6.95;;;;;;;19.60;57.00;100586.17;1397093;91;21405;-84
2023/05/06 07:30:38;;;;;;;7.97;5.87;;;;;;;19.76;56.38;100579.61;1393862;91;21511;-82
2023/05/06 07:33:04;;;;;;;12.28;6.35;;;;;;;19.94;55.86;100587.59;1332361;94;22288;-84
2023/05/06 07:35:30;;;;;;;8.63;5.75;;;;;;;19.99;52.80;100577.06;1460697;93;21238;-82
2023/05/06 07:37:56;;;;;;;10.30;5.92;;;;;;;19.96;52.60;100579.64;1312218;95;21318;-82
2023/05/06 07:40:23;;;;;;;6.85;5.53;;;;;;;20.03;50.52;100575.63;1311872;95;22293;-84
2023/05/06 07:42:49;;;;;;;16.73;4.60;;;;;;;20.05;50.89;100577.58;1310886;95;21278;-83
2023/05/06 07:45:22;;;;;;;10.20;4.80;;;;;;;20.23;51.99;100576.98;1375724;91;21341;-83
2023/05/06 07:47:51;;;;;;;5.60;4.87;;;;;;;20.32;50.08;100587.00;1361961;93;22301;-83
2023/05/06 07:50:17;;;;;;;6.13;4.50;;;;;;;20.44;49.99;100582.64;1396860;91;21443;-84
2023/05/06 07:52:43;;;;;;;5.90;4.30;;;;;;;20.65;50.75;100590.48;1359038;93;22293;-84
2023/05/06 07:55:48;;;;;;;6.12;4.70;;;;;;;20.75;48.99;100593.28;1379956;94;21379;-85
2023/05/06 07:58:14;;;;;;;11.85;4.90;;;;;;;20.90;49.08;100593.33;1407092;91;21640;-85
2023/05/06 08:00:40;;;;;;;7.55;4.90;;;;;;;21.12;48.27;100591.73;1372960;93;21482;-84
2023/05/06 08:03:10;;;;;;;8.93;4.03;;;;;;;21.27;48.92;100587.41;1394065;93;21406;-82
2023/05/06 08:05:36;;;;;;;5.40;4.27;;;;;;;21.35;47.49;100591.21;1365139;93;21376;-85
2023/05/06 08:08:02;;;;;;;8.58;3.87;;;;;;;21.52;47.09;100592.39;1395288;91;22352;-85
2023/05/06 08:10:29;;;;;;;11.50;4.42;;;;;;;21.58;44.90;100592.87;1401128;91;21978;-85
2023/05/06 08:12:55;;;;;;;11.25;3.90;;;;;;;21.57;45.60;100587.16;1393546;91;21435;-86
2023/05/06 08:15:21;;;;;;;6.00;4.37;;;;;;;21.70;46.00;100594.88;1401959;91;21503;-86
2023/05/06 08:17:48;;;;;;;7.12;4.12;;;;;;;21.77;45.54;100593.78;1405560;91;21368;-86
2023/05/06 08:20:14;;;;;;;9.60;5.83;;;;;;;21.83;45.04;100586.70;1403219;91;21406;-85
2023/05/06 08:22:40;;;;;;;9.60;4.62;;;;;;;21.95;45.57;100579.59;1402736;91;22544;-84
2023/05/06 08:25:07;;;;;;;6.37;4.08;;;;;;;22.15;45.39;100582.63;1397599;91;21623;-86
2023/05/06 08:27:34;;;;;;;5.30;3.85;;;;;;;22.33;45.11;100576.48;1399298;91;21391;-84
2023/05/06 08:30:00;;;;;;;5.42;3.65;;;;;;;22.43;44.36;100580.33;1402142;91;21532;-86
2023/05/06 08:32:26;;;;;;;10.10;3.98;;;;;;;22.60;44.01;100582.46;1398949;91;21279;-86
2023/05/06 08:34:52;;;;;;;5.22;3.65;;;;;;;22.70;43.82;100580.91;1387571;91;21500;-84
2023/05/06 08:37:18;;;;;;;4.67;3.67;;;;;;;22.85;43.62;100584.58;1404662;91;21348;-83
2023/05/06 08:39:45;;;;;;;5.22;3.17;;;;;;;22.90;41.07;100580.69;1400518;91;21407;-84
2023/05/06 08:42:11;;;;;;;5.67;4.03;;;;;;;23.00;40.66;100582.06;1399208;91;21422;-85
2023/05/06 08:44:37;;;;;;;4.50;3.50;;;;;;;23.13;42.05;100582.73;1397740;91;21384;-83
2023/05/06 08:47:04;;;;;;;5.35;2.87;;;;;;;23.25;41.66;100582.79;1403679;91;21323;-84
2023/05/06 08:49:30;;;;;;;3.80;3.17;;;;;;;23.40;41.93;100584.55;1394949;91;21540;-82
2023/05/06 08:52:04;;;;;;;6.60;3.83;;;;;;;23.56;40.52;100580.90;1401499;91;21451;-84
2023/05/06 09:05:58;;;;;;;4.15;3.02;;;;;;;23.68;39.17;100573.69;1316489;99;21452;-84
2023/05/06 09:08:26;;;;;;;11.08;3.50;;;;;;;23.76;39.44;100574.70;1315654;98;21688;-83
2023/05/06 09:10:53;;;;;;;8.15;3.52;;;;;;;23.84;39.22;100577.08;1332636;98;21481;-85
2023/05/06 09:13:34;;;;;;;3.72;2.80;;;;;;;23.91;38.69;100572.09;1312439;98;21651;-85
2023/05/06 09:16:27;;;;;;;7.28;3.90;;;;;;;23.91;37.49;100569.39;1315500;97;21528;-83
2023/05/06 09:18:54;;;;;;;4.28;3.47;;;;;;;23.59;37.26;100571.84;1332269;97;22199;-83
2023/05/06 09:21:21;;;;;;;7.08;3.40;;;;;;;23.42;36.62;100566.78;1324744;98;21427;-85
2023/05/06 09:23:47;;;;;;;14.83;4.35;;;;;;;23.28;36.26;100568.02;1334127;97;21555;-80
2023/05/06 09:26:13;;;;;;;10.40;3.27;;;;;;;23.37;37.85;100570.69;1343420;97;22485;-84
2023/05/06 09:28:48;;;;;;;7.60;3.70;;;;;;;23.39;36.36;100559.96;1349088;95;21525;-84
2023/05/06 09:31:14;;;;;;;5.15;3.58;;;;;;;23.31;37.05;100560.27;1345357;97;21719;-85
2023/05/06 09:33:41;;;;;;;4.15;3.42;;;;;;;23.56;37.71;100556.59;1334226;97;21393;-84
2023/05/06 09:36:12;;;;;;;7.03;4.25;;;;;;;23.75;36.91;100547.41;1331067;97;21521;-84
2023/05/06 09:38:36;;;;;;;4.67;3.08;;;;;;;23.96;37.60;100551.42;1325374;99;21702;-85
2023/05/06 09:41:05;;;;;;;7.17;3.35;;;;;;;23.98;35.68;100543.91;1327390;99;21645;-86
2023/05/06 09:43:32;;;;;;;9.75;3.83;;;;;;;24.11;36.79;100546.94;1354529;94;22289;-84
2023/05/06 09:46:01;;;;;;;10.05;3.70;;;;;;;24.10;37.34;100546.63;1374971;94;21524;-84
2023/05/06 09:48:29;;;;;;;8.73;4.22;;;;;;;24.15;37.40;100548.64;1380600;94;21466;-85
2023/05/06 09:50:56;;;;;;;8.53;3.90;;;;;;;24.17;37.27;100537.05;1390413;92;21574;-83
2023/05/06 09:53:24;;;;;;;7.95;3.55;;;;;;;24.37;37.34;100536.19;1398476;92;21599;-84
2023/05/06 09:55:51;;;;;;;6.87;3.30;;;;;;;24.67;36.39;100529.82;1391860;92;22287;-84
2023/05/06 09:58:19;;;;;;;7.47;4.65;;;;;;;24.92;36.36;100530.35;1389355;93;21480;-80
2023/05/06 10:00:53;;;;;;;9.58;4.22;;;;;;;25.15;35.81;100521.36;1393382;93;21427;-84
2023/05/06 10:03:52;;;;;;;3.95;3.55;;;;;;;25.07;34.17;100518.18;1397342;92;22300;-85
2023/05/06 10:06:23;;;;;;;6.87;3.62;;;;;;;24.89;33.59;100515.95;1386799;92;21404;-83
2023/05/06 10:08:49;;;;;;;5.72;3.35;;;;;;;24.37;33.35;100506.94;1423067;94;22455;-81
2023/05/06 10:11:17;;;;;;;5.45;3.25;;;;;;;24.60;35.01;100506.96;1372203;93;21436;-84
2023/05/06 10:13:45;;;;;;;5.83;3.35;;;;;;;24.92;35.54;100499.76;1380491;93;22294;-84
2023/05/06 10:16:13;;;;;;;4.67;3.30;;;;;;;25.19;34.28;100502.73;1360573;94;21376;-82
2023/05/06 10:18:41;;;;;;;6.05;2.85;;;;;;;25.36;34.19;100498.70;1376723;94;21648;-85
2023/05/06 10:21:14;;;;;;;8.90;3.47;;;;;;;25.63;33.83;100499.70;1390046;94;22534;-84
2023/05/06 10:23:49;;;;;;;6.92;3.15;;;;;;;25.81;33.72;100494.60;1359130;95;21575;-84
2023/05/06 10:26:18;;;;;;;7.58;3.17;;;;;;;26.02;33.56;100484.09;1359524;96;21503;-84
2023/05/06 10:28:48;;;;;;;6.72;3.75;;;;;;;26.24;33.53;100478.70;1341443;95;21865;-85
2023/05/06 10:31:15;;;;;;;10.23;3.05;;;;;;;26.17;31.82;100478.07;1379612;92;22007;-83
2023/05/06 10:33:48;;;;;;;5.87;2.92;;;;;;;26.02;32.15;100480.84;1416732;92;22402;-84
2023/05/06 10:36:24;;;;;;;4.80;2.95;;;;;;;26.08;33.29;100471.71;1368995;92;21471;-83
2023/05/06 10:38:56;;;;;;;5.10;3.30;;;;;;;26.20;33.28;100470.25;1390620;93;21549;-87
2023/05/06 10:41:26;;;;;;;26.07;4.00;;;;;;;26.31;32.88;100467.14;1354377;96;21476;-87
2023/05/06 10:43:56;;;;;;;6.30;3.20;;;;;;;26.41;32.67;100465.91;1378690;92;21532;-86
2023/05/06 10:46:25;;;;;;;;;;;;;;;26.29;32.07;100459.78;1401246;92;21355;-85
2023/05/06 10:49:12;;;;;;;5.50;3.37;;;;;;;26.26;32.76;100460.29;1382558;94;20334;-83
2023/05/06 10:51:40;;;;;;;10.63;3.15;;;;;;;26.52;33.61;100459.57;1422714;90;21433;-85
2023/05/06 10:54:23;;;;;;;5.35;2.75;;;;;;;26.63;30.98;100462.42;1434783;90;21370;-86
2023/05/06 10:56:58;;;;;;;7.37;2.62;;;;;;;26.71;32.05;100454.66;1428577;90;21428;-85
2023/05/06 10:59:30;;;;;;;4.83;2.98;;;;;;;26.91;32.48;100462.20;1440468;89;22394;-85
2023/05/06 11:02:08;;;;;;;6.70;3.15;;;;;;;27.10;31.82;100454.52;1416000;90;21396;-87
2023/05/06 11:04:38;;;;;;;6.17;2.80;;;;;;;27.19;31.36;100451.67;1433761;90;21611;-87
2023/05/06 11:07:17;;;;;;;6.50;2.45;;;;;;;27.21;31.30;100454.92;1424470;90;21559;-86
2023/05/06 11:10:06;;;;;;;3.67;2.60;;;;;;;27.27;30.05;100458.52;1365846;91;22254;-84
2023/05/06 11:13:13;;;;;;;8.23;3.15;;;;;;;27.29;30.09;100452.29;1464857;92;21441;-84
2023/05/06 11:15:41;;;;;;;8.55;2.80;;;;;;;27.33;30.24;100455.30;1325748;90;21330;-84
2023/05/06 11:18:31;;;;;;;3.15;2.50;;;;;;;27.38;29.96;100450.73;1444556;90;21506;-84
2023/05/06 11:21:08;;;;;;;8.85;3.87;;;;;;;27.12;29.85;100446.13;1511143;90;21264;-85
2023/05/06 11:23:55;;;;;;;9.13;3.15;;;;;;;26.91;30.38;100443.20;1441044;91;21523;-85
2023/05/06 11:26:25;;;;;;;11.88;2.70;;;;;;;26.69;30.69;100443.22;1426356;92;21536;-85
2023/05/06 11:28:51;;;;;;;;;;;;;;;26.42;30.58;100441.80;1424431;92;21546;-84
2023/05/06 11:31:18;;;;;;;4.92;2.72;;;;;;;26.39;30.24;100440.13;1421133;90;20315;-85
2023/05/06 11:33:56;;;;;;;8.80;3.05;;;;;;;26.27;30.89;100435.64;1419648;92;22525;-86
2023/05/06 11:36:23;;;;;;;3.77;2.85;;;;;;;26.05;30.92;100428.83;1421682;90;22434;-85
2023/05/06 11:38:51;;;;;;;10.00;2.87;;;;;;;25.99;31.55;100424.41;1421384;92;21311;-87
2023/05/06 11:41:19;;;;;;;10.23;2.98;;;;;;;25.83;31.01;100439.61;1400265;92;21399;-86
2023/05/06 11:43:48;;;;;;;2.77;2.42;;;;;;;25.91;31.68;100422.11;1401609;90;22290;-88